sensor_id;sensor_type;location;lat;lon;timestamp;temperature;humidity
19941;DHT22;10132;50.864;5.176;2023-12-28T00:01:41;10.20;99.90
19941;DHT22;10132;50.864;5.176;2023-12-28T00:03:43;10.20;99.90
19941;DHT22;10132;50.864;5.176;2023-12-28T00:05:45;10.20;99.90
19941;DHT22;10132;50.864;5.176;2023-12-28T00:07:48;10.20;99.90
19941;DHT22;10132;50.864;5.176;2023-12-28T00:09:50;10.10;99.90
19941;DHT22;10132;50.864;5.176;2023-12-28T00:11:53;10.10;99.90
19941;DHT22;10132;50.864;5.176;2023-12-28T00:13:55;10.10;99.90
19941;DHT22;10132;50.864;5.176;2023-12-28T00:15:57;10.10;99.90
19941;DHT22;10132;50.864;5.176;2023-12-28T00:17:59;10.10;99.90
19941;DHT22;10132;50.864;5.176;2023-12-28T00:20:01;10.20;99.90
19941;DHT22;10132;50.864;5.176;2023-12-28T00:22:03;10.10;99.90
19941;DHT22;10132;50.864;5.176;2023-12-28T00:24:05;10.10;99.90
19941;DHT22;10132;50.864;5.176;2023-12-28T00:26:07;10.10;99.90
19941;DHT22;10132;50.864;5.176;2023-12-28T00:28:11;10.10;99.90
19941;DHT22;10132;50.864;5.176;2023-12-28T00:30:13;10.10;99.90
19941;DHT22;10132;50.864;5.176;2023-12-28T00:32:14;10.10;99.90
19941;DHT22;10132;50.864;5.176;2023-12-28T00:34:16;10.10;99.90
19941;DHT22;10132;50.864;5.176;2023-12-28T00:36:18;10.00;99.90
19941;DHT22;10132;50.864;5.176;2023-12-28T00:38:21;10.10;99.90
19941;DHT22;10132;50.864;5.176;2023-12-28T00:40:23;10.10;99.90
19941;DHT22;10132;50.864;5.176;2023-12-28T00:42:25;10.10;99.90
19941;DHT22;10132;50.864;5.176;2023-12-28T00:44:28;10.10;99.90
19941;DHT22;10132;50.864;5.176;2023-12-28T00:46:30;10.00;99.90
19941;DHT22;10132;50.864;5.176;2023-12-28T00:48:32;10.00;99.90
19941;DHT22;10132;50.864;5.176;2023-12-28T00:50:33;10.10;99.90
19941;DHT22;10132;50.864;5.176;2023-12-28T00:52:35;10.00;99.90
19941;DHT22;10132;50.864;5.176;2023-12-28T00:54:37;10.10;99.90
19941;DHT22;10132;50.864;5.176;2023-12-28T00:56:39;10.10;99.90
19941;DHT22;10132;50.864;5.176;2023-12-28T00:58:41;10.10;99.90
19941;DHT22;10132;50.864;5.176;2023-12-28T01:00:45;10.20;99.90
19941;DHT22;10132;50.864;5.176;2023-12-28T01:02:47;10.20;99.90
19941;DHT22;10132;50.864;5.176;2023-12-28T01:04:48;10.30;99.90
19941;DHT22;10132;50.864;5.176;2023-12-28T01:06:51;10.30;99.90
19941;DHT22;10132;50.864;5.176;2023-12-28T01:08:53;10.30;99.90
19941;DHT22;10132;50.864;5.176;2023-12-28T01:10:55;10.30;99.90
19941;DHT22;10132;50.864;5.176;2023-12-28T01:12:57;10.30;99.90
19941;DHT22;10132;50.864;5.176;2023-12-28T01:14:59;10.30;99.90
19941;DHT22;10132;50.864;5.176;2023-12-28T01:17:02;10.30;99.90
19941;DHT22;10132;50.864;5.176;2023-12-28T01:19:05;10.40;99.90
19941;DHT22;10132;50.864;5.176;2023-12-28T01:21:06;10.40;99.90
19941;DHT22;10132;50.864;5.176;2023-12-28T01:23:08;10.50;99.90
19941;DHT22;10132;50.864;5.176;2023-12-28T01:25:11;10.50;99.90
19941;DHT22;10132;50.864;5.176;2023-12-28T01:27:12;10.50;99.90
19941;DHT22;10132;50.864;5.176;2023-12-28T01:29:14;10.50;99.90
19941;DHT22;10132;50.864;5.176;2023-12-28T01:31:16;10.60;99.90
19941;DHT22;10132;50.864;5.176;2023-12-28T01:33:19;10.60;99.90
19941;DHT22;10132;50.864;5.176;2023-12-28T01:35:21;10.60;99.90
19941;DHT22;10132;50.864;5.176;2023-12-28T01:37:23;10.60;99.90
19941;DHT22;10132;50.864;5.176;2023-12-28T01:39:24;10.60;99.90
19941;DHT22;10132;50.864;5.176;2023-12-28T01:41:26;10.60;99.90
19941;DHT22;10132;50.864;5.176;2023-12-28T01:43:28;10.60;99.90
19941;DHT22;10132;50.864;5.176;2023-12-28T01:45:30;10.60;99.90
19941;DHT22;10132;50.864;5.176;2023-12-28T01:47:32;10.60;99.90
19941;DHT22;10132;50.864;5.176;2023-12-28T01:49:37;10.60;99.90
19941;DHT22;10132;50.864;5.176;2023-12-28T01:51:39;10.60;99.90
19941;DHT22;10132;50.864;5.176;2023-12-28T01:53:41;10.60;99.90
19941;DHT22;10132;50.864;5.176;2023-12-28T01:55:44;10.60;99.90
19941;DHT22;10132;50.864;5.176;2023-12-28T01:57:47;10.50;99.90
19941;DHT22;10132;50.864;5.176;2023-12-28T01:59:49;10.60;99.90
19941;DHT22;10132;50.864;5.176;2023-12-28T02:01:51;10.60;99.90
19941;DHT22;10132;50.864;5.176;2023-12-28T02:03:54;10.50;99.90
19941;DHT22;10132;50.864;5.176;2023-12-28T02:05:58;10.50;99.90
19941;DHT22;10132;50.864;5.176;2023-12-28T02:08:00;10.40;99.90
19941;DHT22;10132;50.864;5.176;2023-12-28T02:10:02;10.40;99.90
19941;DHT22;10132;50.864;5.176;2023-12-28T02:12:05;10.40;99.90
19941;DHT22;10132;50.864;5.176;2023-12-28T02:14:07;10.40;99.90
19941;DHT22;10132;50.864;5.176;2023-12-28T02:16:14;10.40;99.90
19941;DHT22;10132;50.864;5.176;2023-12-28T02:18:21;10.40;99.90
19941;DHT22;10132;50.864;5.176;2023-12-28T02:20:27;10.50;99.90
19941;DHT22;10132;50.864;5.176;2023-12-28T02:22:32;10.40;99.90
19941;DHT22;10132;50.864;5.176;2023-12-28T02:25:03;10.40;99.90
19941;DHT22;10132;50.864;5.176;2023-12-28T02:27:06;10.40;99.90
19941;DHT22;10132;50.864;5.176;2023-12-28T02:29:08;10.40;99.90
19941;DHT22;10132;50.864;5.176;2023-12-28T02:31:16;10.30;99.90
19941;DHT22;10132;50.864;5.176;2023-12-28T02:33:26;10.30;99.90
19941;DHT22;10132;50.864;5.176;2023-12-28T02:35:31;10.30;99.90
19941;DHT22;10132;50.864;5.176;2023-12-28T02:37:34;10.30;99.90
19941;DHT22;10132;50.864;5.176;2023-12-28T02:39:36;10.30;99.90
19941;DHT22;10132;50.864;5.176;2023-12-28T02:41:41;10.30;99.90
19941;DHT22;10132;50.864;5.176;2023-12-28T02:43:43;10.30;99.90
19941;DHT22;10132;50.864;5.176;2023-12-28T02:45:45;10.30;99.90
19941;DHT22;10132;50.864;5.176;2023-12-28T02:47:47;10.20;99.90
19941;DHT22;10132;50.864;5.176;2023-12-28T02:49:49;10.30;99.90
19941;DHT22;10132;50.864;5.176;2023-12-28T02:51:50;10.20;99.90
19941;DHT22;10132;50.864;5.176;2023-12-28T02:53:52;10.20;99.90
19941;DHT22;10132;50.864;5.176;2023-12-28T02:55:53;10.20;99.90
19941;DHT22;10132;50.864;5.176;2023-12-28T02:57:58;10.20;99.90
19941;DHT22;10132;50.864;5.176;2023-12-28T03:00:00;10.20;99.90
19941;DHT22;10132;50.864;5.176;2023-12-28T03:02:03;10.20;99.90
19941;DHT22;10132;50.864;5.176;2023-12-28T03:04:05;10.30;99.90
19941;DHT22;10132;50.864;5.176;2023-12-28T03:06:10;10.30;99.90
19941;DHT22;10132;50.864;5.176;2023-12-28T03:08:12;10.30;99.90
19941;DHT22;10132;50.864;5.176;2023-12-28T03:10:14;10.30;99.90
19941;DHT22;10132;50.864;5.176;2023-12-28T03:12:15;10.20;99.90
19941;DHT22;10132;50.864;5.176;2023-12-28T03:14:18;10.20;99.90
19941;DHT22;10132;50.864;5.176;2023-12-28T03:16:21;10.20;99.90
19941;DHT22;10132;50.864;5.176;2023-12-28T03:18:23;10.20;99.90
19941;DHT22;10132;50.864;5.176;2023-12-28T03:20:25;10.20;99.90
19941;DHT22;10132;50.864;5.176;2023-12-28T03:22:27;10.20;99.90
19941;DHT22;10132;50.864;5.176;2023-12-28T03:24:29;10.20;99.90
19941;DHT22;10132;50.864;5.176;2023-12-28T03:26:31;10.20;99.90
19941;DHT22;10132;50.864;5.176;2023-12-28T03:28:35;10.20;99.90
19941;DHT22;10132;50.864;5.176;2023-12-28T03:30:39;10.20;99.90
19941;DHT22;10132;50.864;5.176;2023-12-28T03:32:41;10.20;99.90
19941;DHT22;10132;50.864;5.176;2023-12-28T03:34:43;10.30;99.90
19941;DHT22;10132;50.864;5.176;2023-12-28T03:36:45;10.20;99.90
19941;DHT22;10132;50.864;5.176;2023-12-28T03:38:46;10.20;99.90
19941;DHT22;10132;50.864;5.176;2023-12-28T03:40:48;10.20;99.90
19941;DHT22;10132;50.864;5.176;2023-12-28T03:42:50;10.20;99.90
19941;DHT22;10132;50.864;5.176;2023-12-28T03:44:52;10.20;99.90
19941;DHT22;10132;50.864;5.176;2023-12-28T03:46:56;10.20;99.90
19941;DHT22;10132;50.864;5.176;2023-12-28T03:48:58;10.20;99.90
19941;DHT22;10132;50.864;5.176;2023-12-28T03:50:59;10.20;99.90
19941;DHT22;10132;50.864;5.176;2023-12-28T03:53:01;10.30;99.90
19941;DHT22;10132;50.864;5.176;2023-12-28T03:55:03;10.30;99.90
19941;DHT22;10132;50.864;5.176;2023-12-28T03:57:05;10.20;99.90
19941;DHT22;10132;50.864;5.176;2023-12-28T03:59:07;10.30;99.90
19941;DHT22;10132;50.864;5.176;2023-12-28T04:01:10;10.30;99.90
19941;DHT22;10132;50.864;5.176;2023-12-28T04:03:12;10.30;99.90
19941;DHT22;10132;50.864;5.176;2023-12-28T04:05:14;10.40;99.90
19941;DHT22;10132;50.864;5.176;2023-12-28T04:07:16;10.30;99.90
19941;DHT22;10132;50.864;5.176;2023-12-28T04:09:18;10.30;99.90
19941;DHT22;10132;50.864;5.176;2023-12-28T04:11:20;10.30;99.90
19941;DHT22;10132;50.864;5.176;2023-12-28T04:13:21;10.30;99.90
19941;DHT22;10132;50.864;5.176;2023-12-28T04:15:23;10.30;99.90
19941;DHT22;10132;50.864;5.176;2023-12-28T04:17:25;10.30;99.90
19941;DHT22;10132;50.864;5.176;2023-12-28T04:19:30;10.30;99.90
19941;DHT22;10132;50.864;5.176;2023-12-28T04:21:32;10.30;99.90
19941;DHT22;10132;50.864;5.176;2023-12-28T04:23:34;10.30;99.90
19941;DHT22;10132;50.864;5.176;2023-12-28T04:25:36;10.30;99.90
19941;DHT22;10132;50.864;5.176;2023-12-28T04:27:39;10.30;99.90
19941;DHT22;10132;50.864;5.176;2023-12-28T04:29:40;10.30;99.90
19941;DHT22;10132;50.864;5.176;2023-12-28T04:31:42;10.30;99.90
19941;DHT22;10132;50.864;5.176;2023-12-28T04:33:44;10.40;99.90
19941;DHT22;10132;50.864;5.176;2023-12-28T04:35:47;10.30;99.90
19941;DHT22;10132;50.864;5.176;2023-12-28T04:37:49;10.30;99.90
19941;DHT22;10132;50.864;5.176;2023-12-28T04:39:51;10.40;99.90
19941;DHT22;10132;50.864;5.176;2023-12-28T04:41:53;10.40;99.90
19941;DHT22;10132;50.864;5.176;2023-12-28T04:43:55;10.40;99.90
19941;DHT22;10132;50.864;5.176;2023-12-28T04:45:57;10.40;99.90
19941;DHT22;10132;50.864;5.176;2023-12-28T04:48:04;10.40;99.90
19941;DHT22;10132;50.864;5.176;2023-12-28T04:50:07;10.50;99.90
19941;DHT22;10132;50.864;5.176;2023-12-28T04:52:10;10.50;99.90
19941;DHT22;10132;50.864;5.176;2023-12-28T04:54:12;10.50;99.90
19941;DHT22;10132;50.864;5.176;2023-12-28T04:56:18;10.60;99.90
19941;DHT22;10132;50.864;5.176;2023-12-28T04:58:20;10.60;99.90
19941;DHT22;10132;50.864;5.176;2023-12-28T05:00:22;10.60;99.90
19941;DHT22;10132;50.864;5.176;2023-12-28T05:02:24;10.60;99.90
19941;DHT22;10132;50.864;5.176;2023-12-28T05:04:25;10.60;99.90
19941;DHT22;10132;50.864;5.176;2023-12-28T05:06:28;10.60;99.90
19941;DHT22;10132;50.864;5.176;2023-12-28T05:08:31;10.60;99.90
19941;DHT22;10132;50.864;5.176;2023-12-28T05:10:33;10.60;99.90
19941;DHT22;10132;50.864;5.176;2023-12-28T05:12:36;10.60;99.90
19941;DHT22;10132;50.864;5.176;2023-12-28T05:14:37;10.60;99.90
19941;DHT22;10132;50.864;5.176;2023-12-28T05:16:39;10.60;99.90
19941;DHT22;10132;50.864;5.176;2023-12-28T05:18:41;10.50;99.90
19941;DHT22;10132;50.864;5.176;2023-12-28T05:20:43;10.50;99.90
19941;DHT22;10132;50.864;5.176;2023-12-28T05:22:45;10.60;99.90
19941;DHT22;10132;50.864;5.176;2023-12-28T05:24:49;10.60;99.90
19941;DHT22;10132;50.864;5.176;2023-12-28T05:26:51;10.60;99.90
19941;DHT22;10132;50.864;5.176;2023-12-28T05:28:53;10.60;99.90
19941;DHT22;10132;50.864;5.176;2023-12-28T05:30:55;10.50;99.90
19941;DHT22;10132;50.864;5.176;2023-12-28T05:32:55;10.50;99.90
19941;DHT22;10132;50.864;5.176;2023-12-28T05:34:57;10.50;99.90
19941;DHT22;10132;50.864;5.176;2023-12-28T05:36:58;10.40;99.90
19941;DHT22;10132;50.864;5.176;2023-12-28T05:39:00;10.40;99.90
19941;DHT22;10132;50.864;5.176;2023-12-28T05:41:04;10.40;99.90
19941;DHT22;10132;50.864;5.176;2023-12-28T05:43:06;10.40;99.90
19941;DHT22;10132;50.864;5.176;2023-12-28T05:45:08;10.40;99.90
19941;DHT22;10132;50.864;5.176;2023-12-28T05:47:10;10.40;99.90
19941;DHT22;10132;50.864;5.176;2023-12-28T05:49:11;10.30;99.90
19941;DHT22;10132;50.864;5.176;2023-12-28T05:51:13;10.30;99.90
19941;DHT22;10132;50.864;5.176;2023-12-28T05:53:15;10.30;99.90
19941;DHT22;10132;50.864;5.176;2023-12-28T05:55:17;10.30;99.90
19941;DHT22;10132;50.864;5.176;2023-12-28T05:57:21;10.30;99.90
19941;DHT22;10132;50.864;5.176;2023-12-28T05:59:23;10.30;99.90
19941;DHT22;10132;50.864;5.176;2023-12-28T06:01:26;10.30;99.90
19941;DHT22;10132;50.864;5.176;2023-12-28T06:03:28;10.30;99.90
19941;DHT22;10132;50.864;5.176;2023-12-28T06:05:30;10.30;99.90
19941;DHT22;10132;50.864;5.176;2023-12-28T06:07:33;10.30;99.90
19941;DHT22;10132;50.864;5.176;2023-12-28T06:09:35;10.30;99.90
19941;DHT22;10132;50.864;5.176;2023-12-28T06:11:37;10.30;99.90
19941;DHT22;10132;50.864;5.176;2023-12-28T06:13:40;10.20;99.90
19941;DHT22;10132;50.864;5.176;2023-12-28T06:15:42;10.20;99.90
19941;DHT22;10132;50.864;5.176;2023-12-28T06:17:44;10.30;99.90
19941;DHT22;10132;50.864;5.176;2023-12-28T06:19:46;10.30;99.90
19941;DHT22;10132;50.864;5.176;2023-12-28T06:21:48;10.30;99.90
19941;DHT22;10132;50.864;5.176;2023-12-28T06:23:50;10.30;99.90
19941;DHT22;10132;50.864;5.176;2023-12-28T06:25:51;10.40;99.90
19941;DHT22;10132;50.864;5.176;2023-12-28T06:27:52;10.40;99.90
19941;DHT22;10132;50.864;5.176;2023-12-28T06:29:56;10.40;99.90
19941;DHT22;10132;50.864;5.176;2023-12-28T06:31:58;10.40;99.90
19941;DHT22;10132;50.864;5.176;2023-12-28T06:34:00;10.40;99.90
19941;DHT22;10132;50.864;5.176;2023-12-28T06:36:06;10.40;99.90
19941;DHT22;10132;50.864;5.176;2023-12-28T06:38:07;10.40;99.90
19941;DHT22;10132;50.864;5.176;2023-12-28T06:40:10;10.40;99.90
19941;DHT22;10132;50.864;5.176;2023-12-28T06:42:12;10.40;99.90
19941;DHT22;10132;50.864;5.176;2023-12-28T06:44:14;10.40;99.90
19941;DHT22;10132;50.864;5.176;2023-12-28T06:46:17;10.40;99.90
19941;DHT22;10132;50.864;5.176;2023-12-28T06:48:19;10.40;99.90
19941;DHT22;10132;50.864;5.176;2023-12-28T06:50:21;10.40;99.90
19941;DHT22;10132;50.864;5.176;2023-12-28T06:52:22;10.40;99.90
19941;DHT22;10132;50.864;5.176;2023-12-28T06:54:24;10.40;99.90
19941;DHT22;10132;50.864;5.176;2023-12-28T06:56:26;10.30;99.90
19941;DHT22;10132;50.864;5.176;2023-12-28T06:58:29;10.30;99.90
19941;DHT22;10132;50.864;5.176;2023-12-28T07:00:31;10.30;99.90
19941;DHT22;10132;50.864;5.176;2023-12-28T07:02:34;10.20;99.90
19941;DHT22;10132;50.864;5.176;2023-12-28T07:04:36;10.20;99.90
19941;DHT22;10132;50.864;5.176;2023-12-28T07:06:38;10.20;99.90
19941;DHT22;10132;50.864;5.176;2023-12-28T07:08:41;10.20;99.90
19941;DHT22;10132;50.864;5.176;2023-12-28T07:10:42;10.30;99.90
19941;DHT22;10132;50.864;5.176;2023-12-28T07:12:43;10.30;99.90
19941;DHT22;10132;50.864;5.176;2023-12-28T07:14:45;10.30;99.90
19941;DHT22;10132;50.864;5.176;2023-12-28T07:16:47;10.30;99.90
19941;DHT22;10132;50.864;5.176;2023-12-28T07:18:51;10.30;99.90
19941;DHT22;10132;50.864;5.176;2023-12-28T07:20:53;10.40;99.90
19941;DHT22;10132;50.864;5.176;2023-12-28T07:22:55;10.40;99.90
19941;DHT22;10132;50.864;5.176;2023-12-28T07:24:57;10.40;99.90
19941;DHT22;10132;50.864;5.176;2023-12-28T07:26:59;10.50;99.90
19941;DHT22;10132;50.864;5.176;2023-12-28T07:29:01;10.50;99.90
19941;DHT22;10132;50.864;5.176;2023-12-28T07:31:03;10.50;99.90
19941;DHT22;10132;50.864;5.176;2023-12-28T07:33:05;10.40;99.90
19941;DHT22;10132;50.864;5.176;2023-12-28T07:35:09;10.40;99.90
19941;DHT22;10132;50.864;5.176;2023-12-28T07:37:11;10.40;99.90
19941;DHT22;10132;50.864;5.176;2023-12-28T07:39:13;10.40;99.90
19941;DHT22;10132;50.864;5.176;2023-12-28T07:41:15;10.40;99.90
19941;DHT22;10132;50.864;5.176;2023-12-28T07:43:17;10.30;99.90
19941;DHT22;10132;50.864;5.176;2023-12-28T07:45:19;10.30;99.90
19941;DHT22;10132;50.864;5.176;2023-12-28T07:47:23;10.30;99.90
19941;DHT22;10132;50.864;5.176;2023-12-28T07:49:25;10.30;99.90
19941;DHT22;10132;50.864;5.176;2023-12-28T07:51:29;10.30;99.90
19941;DHT22;10132;50.864;5.176;2023-12-28T07:53:31;10.30;99.90
19941;DHT22;10132;50.864;5.176;2023-12-28T07:55:33;10.30;99.90
19941;DHT22;10132;50.864;5.176;2023-12-28T07:57:35;10.20;99.90
19941;DHT22;10132;50.864;5.176;2023-12-28T07:59:37;10.20;99.90
19941;DHT22;10132;50.864;5.176;2023-12-28T08:01:39;10.20;99.90
19941;DHT22;10132;50.864;5.176;2023-12-28T08:03:41;10.30;99.90
19941;DHT22;10132;50.864;5.176;2023-12-28T08:05:43;10.20;99.90
19941;DHT22;10132;50.864;5.176;2023-12-28T08:07:46;10.20;99.90
19941;DHT22;10132;50.864;5.176;2023-12-28T08:09:47;10.30;99.90
19941;DHT22;10132;50.864;5.176;2023-12-28T08:11:49;10.30;99.90
19941;DHT22;10132;50.864;5.176;2023-12-28T08:13:51;10.30;99.90
19941;DHT22;10132;50.864;5.176;2023-12-28T08:15:53;10.30;99.90
19941;DHT22;10132;50.864;5.176;2023-12-28T08:17:55;10.30;99.90
19941;DHT22;10132;50.864;5.176;2023-12-28T08:19:57;10.30;99.90
19941;DHT22;10132;50.864;5.176;2023-12-28T08:21:59;10.40;99.90
19941;DHT22;10132;50.864;5.176;2023-12-28T08:24:02;10.40;99.90
19941;DHT22;10132;50.864;5.176;2023-12-28T08:26:04;10.40;99.90
19941;DHT22;10132;50.864;5.176;2023-12-28T08:28:07;10.50;99.90
19941;DHT22;10132;50.864;5.176;2023-12-28T08:30:10;10.50;99.90
19941;DHT22;10132;50.864;5.176;2023-12-28T08:32:12;10.50;99.90
19941;DHT22;10132;50.864;5.176;2023-12-28T08:34:13;10.60;99.90
19941;DHT22;10132;50.864;5.176;2023-12-28T08:36:15;10.70;99.90
19941;DHT22;10132;50.864;5.176;2023-12-28T08:38:18;10.80;99.90
19941;DHT22;10132;50.864;5.176;2023-12-28T08:40:21;10.80;99.90
19941;DHT22;10132;50.864;5.176;2023-12-28T08:42:23;10.80;99.90
19941;DHT22;10132;50.864;5.176;2023-12-28T08:44:25;10.80;99.90
19941;DHT22;10132;50.864;5.176;2023-12-28T08:46:27;10.90;99.90
19941;DHT22;10132;50.864;5.176;2023-12-28T08:48:29;11.00;99.90
19941;DHT22;10132;50.864;5.176;2023-12-28T08:50:31;11.10;99.90
19941;DHT22;10132;50.864;5.176;2023-12-28T08:52:32;11.10;99.90
19941;DHT22;10132;50.864;5.176;2023-12-28T08:54:34;11.10;99.90
19941;DHT22;10132;50.864;5.176;2023-12-28T08:56:37;11.00;99.90
19941;DHT22;10132;50.864;5.176;2023-12-28T08:58:39;11.10;99.90
19941;DHT22;10132;50.864;5.176;2023-12-28T09:00:41;11.10;99.90
19941;DHT22;10132;50.864;5.176;2023-12-28T09:02:45;11.10;99.90
19941;DHT22;10132;50.864;5.176;2023-12-28T09:04:47;11.00;99.90
19941;DHT22;10132;50.864;5.176;2023-12-28T09:06:49;11.10;99.90
19941;DHT22;10132;50.864;5.176;2023-12-28T09:08:51;11.10;99.90
19941;DHT22;10132;50.864;5.176;2023-12-28T09:10:54;11.10;99.90
19941;DHT22;10132;50.864;5.176;2023-12-28T09:12:57;11.20;99.90
19941;DHT22;10132;50.864;5.176;2023-12-28T09:14:59;11.20;99.90
19941;DHT22;10132;50.864;5.176;2023-12-28T09:17:01;11.30;99.90
19941;DHT22;10132;50.864;5.176;2023-12-28T09:19:03;11.30;99.90
19941;DHT22;10132;50.864;5.176;2023-12-28T09:21:05;11.30;99.90
19941;DHT22;10132;50.864;5.176;2023-12-28T09:23:08;11.40;99.90
19941;DHT22;10132;50.864;5.176;2023-12-28T09:25:11;11.40;99.90
19941;DHT22;10132;50.864;5.176;2023-12-28T09:27:14;11.40;99.90
19941;DHT22;10132;50.864;5.176;2023-12-28T09:29:17;11.40;99.90
19941;DHT22;10132;50.864;5.176;2023-12-28T09:31:19;11.40;99.90
19941;DHT22;10132;50.864;5.176;2023-12-28T09:33:21;11.50;99.90
19941;DHT22;10132;50.864;5.176;2023-12-28T09:35:23;11.50;99.90
19941;DHT22;10132;50.864;5.176;2023-12-28T09:37:26;11.50;99.90
19941;DHT22;10132;50.864;5.176;2023-12-28T09:39:28;11.50;99.90
19941;DHT22;10132;50.864;5.176;2023-12-28T09:41:34;11.50;99.90
19941;DHT22;10132;50.864;5.176;2023-12-28T09:43:44;11.40;99.90
19941;DHT22;10132;50.864;5.176;2023-12-28T09:45:49;11.40;99.90
19941;DHT22;10132;50.864;5.176;2023-12-28T09:47:52;11.40;99.90
19941;DHT22;10132;50.864;5.176;2023-12-28T09:49:54;11.40;99.90
19941;DHT22;10132;50.864;5.176;2023-12-28T09:51:56;11.40;99.90
19941;DHT22;10132;50.864;5.176;2023-12-28T09:53:59;11.30;99.90
19941;DHT22;10132;50.864;5.176;2023-12-28T09:56:02;11.30;99.90
19941;DHT22;10132;50.864;5.176;2023-12-28T09:58:06;11.20;99.90
19941;DHT22;10132;50.864;5.176;2023-12-28T10:00:09;11.20;99.90
19941;DHT22;10132;50.864;5.176;2023-12-28T10:02:15;11.20;99.90
19941;DHT22;10132;50.864;5.176;2023-12-28T10:04:17;11.20;99.90
19941;DHT22;10132;50.864;5.176;2023-12-28T10:06:19;11.30;99.90
19941;DHT22;10132;50.864;5.176;2023-12-28T10:08:22;11.40;99.90
19941;DHT22;10132;50.864;5.176;2023-12-28T10:10:24;11.50;99.90
19941;DHT22;10132;50.864;5.176;2023-12-28T10:12:26;11.60;99.90
19941;DHT22;10132;50.864;5.176;2023-12-28T10:14:28;11.70;99.90
19941;DHT22;10132;50.864;5.176;2023-12-28T10:16:30;11.70;99.90
19941;DHT22;10132;50.864;5.176;2023-12-28T10:18:34;11.80;99.90
19941;DHT22;10132;50.864;5.176;2023-12-28T10:20:35;11.80;99.90
19941;DHT22;10132;50.864;5.176;2023-12-28T10:22:38;11.70;99.90
19941;DHT22;10132;50.864;5.176;2023-12-28T10:24:42;11.70;99.90
19941;DHT22;10132;50.864;5.176;2023-12-28T10:26:44;11.80;99.90
19941;DHT22;10132;50.864;5.176;2023-12-28T10:28:46;11.80;99.90
19941;DHT22;10132;50.864;5.176;2023-12-28T10:30:48;11.90;99.90
19941;DHT22;10132;50.864;5.176;2023-12-28T10:32:55;11.90;99.90
19941;DHT22;10132;50.864;5.176;2023-12-28T10:34:59;11.90;99.90
19941;DHT22;10132;50.864;5.176;2023-12-28T10:37:00;11.90;99.90
19941;DHT22;10132;50.864;5.176;2023-12-28T10:39:05;11.80;99.90
19941;DHT22;10132;50.864;5.176;2023-12-28T10:41:07;11.70;99.90
19941;DHT22;10132;50.864;5.176;2023-12-28T10:43:11;11.80;99.90
19941;DHT22;10132;50.864;5.176;2023-12-28T10:45:16;11.80;99.90
19941;DHT22;10132;50.864;5.176;2023-12-28T10:47:22;11.70;99.90
19941;DHT22;10132;50.864;5.176;2023-12-28T10:49:26;11.70;99.90
19941;DHT22;10132;50.864;5.176;2023-12-28T10:51:30;11.80;99.90
19941;DHT22;10132;50.864;5.176;2023-12-28T10:53:38;11.80;99.90
19941;DHT22;10132;50.864;5.176;2023-12-28T10:55:51;11.80;99.90
19941;DHT22;10132;50.864;5.176;2023-12-28T10:57:59;11.90;99.90
19941;DHT22;10132;50.864;5.176;2023-12-28T11:00:08;11.90;99.90
19941;DHT22;10132;50.864;5.176;2023-12-28T11:02:15;11.90;99.90
19941;DHT22;10132;50.864;5.176;2023-12-28T11:04:27;11.80;99.90
19941;DHT22;10132;50.864;5.176;2023-12-28T11:06:35;11.80;99.90
19941;DHT22;10132;50.864;5.176;2023-12-28T11:08:39;11.90;99.90
19941;DHT22;10132;50.864;5.176;2023-12-28T11:10:43;12.10;99.90
19941;DHT22;10132;50.864;5.176;2023-12-28T11:12:46;12.10;99.90
19941;DHT22;10132;50.864;5.176;2023-12-28T11:14:49;12.20;99.90
19941;DHT22;10132;50.864;5.176;2023-12-28T11:16:53;12.20;99.90
19941;DHT22;10132;50.864;5.176;2023-12-28T11:18:55;12.10;99.90
19941;DHT22;10132;50.864;5.176;2023-12-28T11:20:57;12.10;99.90
19941;DHT22;10132;50.864;5.176;2023-12-28T11:23:02;12.20;99.90
19941;DHT22;10132;50.864;5.176;2023-12-28T11:25:04;12.40;99.90
19941;DHT22;10132;50.864;5.176;2023-12-28T11:27:05;12.40;99.90
19941;DHT22;10132;50.864;5.176;2023-12-28T11:29:07;12.30;99.90
19941;DHT22;10132;50.864;5.176;2023-12-28T11:31:10;12.40;99.90
19941;DHT22;10132;50.864;5.176;2023-12-28T11:33:11;12.50;99.90
19941;DHT22;10132;50.864;5.176;2023-12-28T11:35:13;12.50;99.90
19941;DHT22;10132;50.864;5.176;2023-12-28T11:37:17;12.40;99.90
19941;DHT22;10132;50.864;5.176;2023-12-28T11:39:29;12.50;99.90
19941;DHT22;10132;50.864;5.176;2023-12-28T11:41:31;12.40;99.90
19941;DHT22;10132;50.864;5.176;2023-12-28T11:43:35;12.40;99.90
19941;DHT22;10132;50.864;5.176;2023-12-28T11:45:37;12.30;99.90
19941;DHT22;10132;50.864;5.176;2023-12-28T11:47:39;12.10;99.90
19941;DHT22;10132;50.864;5.176;2023-12-28T11:49:42;12.10;99.90
19941;DHT22;10132;50.864;5.176;2023-12-28T11:51:55;12.20;99.90
19941;DHT22;10132;50.864;5.176;2023-12-28T11:53:58;12.10;99.90
19941;DHT22;10132;50.864;5.176;2023-12-28T11:56:02;12.10;99.90
19941;DHT22;10132;50.864;5.176;2023-12-28T11:58:06;12.20;99.90
19941;DHT22;10132;50.864;5.176;2023-12-28T12:00:08;12.20;99.90
19941;DHT22;10132;50.864;5.176;2023-12-28T12:02:11;12.20;99.90
19941;DHT22;10132;50.864;5.176;2023-12-28T12:04:13;12.20;99.90
19941;DHT22;10132;50.864;5.176;2023-12-28T12:06:15;12.20;99.90
19941;DHT22;10132;50.864;5.176;2023-12-28T12:08:17;12.20;99.90
19941;DHT22;10132;50.864;5.176;2023-12-28T12:10:19;12.10;99.90
19941;DHT22;10132;50.864;5.176;2023-12-28T12:12:23;12.20;99.90
19941;DHT22;10132;50.864;5.176;2023-12-28T12:14:25;12.20;99.90
19941;DHT22;10132;50.864;5.176;2023-12-28T12:16:27;12.20;99.90
19941;DHT22;10132;50.864;5.176;2023-12-28T12:18:29;12.10;99.90
19941;DHT22;10132;50.864;5.176;2023-12-28T12:20:31;12.10;99.90
19941;DHT22;10132;50.864;5.176;2023-12-28T12:22:33;12.20;99.90
19941;DHT22;10132;50.864;5.176;2023-12-28T12:24:35;12.10;99.90
19941;DHT22;10132;50.864;5.176;2023-12-28T12:26:38;12.10;99.90
19941;DHT22;10132;50.864;5.176;2023-12-28T12:28:41;12.20;99.90
19941;DHT22;10132;50.864;5.176;2023-12-28T12:30:50;12.20;99.90
19941;DHT22;10132;50.864;5.176;2023-12-28T12:32:52;12.20;99.90
19941;DHT22;10132;50.864;5.176;2023-12-28T12:34:54;12.20;99.90
19941;DHT22;10132;50.864;5.176;2023-12-28T12:36:57;12.30;99.90
19941;DHT22;10132;50.864;5.176;2023-12-28T12:38:59;12.20;99.90
19941;DHT22;10132;50.864;5.176;2023-12-28T12:41:00;12.10;99.90
19941;DHT22;10132;50.864;5.176;2023-12-28T12:43:02;12.10;99.90
19941;DHT22;10132;50.864;5.176;2023-12-28T12:45:07;12.10;99.90
19941;DHT22;10132;50.864;5.176;2023-12-28T12:47:09;12.10;99.90
19941;DHT22;10132;50.864;5.176;2023-12-28T12:49:11;12.10;99.90
19941;DHT22;10132;50.864;5.176;2023-12-28T12:51:13;12.20;99.90
19941;DHT22;10132;50.864;5.176;2023-12-28T12:53:15;12.20;99.90
19941;DHT22;10132;50.864;5.176;2023-12-28T12:55:17;12.10;99.90